KLGC/LGC METAR and TAF weather

Enter ICAO airport designator
Station Type Date Time Source
KLGC METAR 2019/11/21 03:35 UTC NOAA

KLGC 210335Z AUTO 00000KT 10SM CLR 05/04 A3023 RMK AO2 T00500044


Station Type Date Time Source
KLGC Decoded METAR 2019/11/21 03:35 UTC NOAA

La Grange, Callaway Airport, GA, United States (KLGC) 33-00-32N 085-04-21W
Nov 20, 2019 - 10:35 PM EST / 2019.11.21 0335 UTC
Wind: Calm:0
Visibility: 10 mile(s):0
Sky conditions: clear
Temperature: 41.0 F (5.0 C)
Dew Point: 39.9 F (4.4 C)
Relative Humidity: 95%
Pressure (altimeter): 30.23 in. Hg (1023 hPa)
ob: KLGC 210335Z AUTO 00000KT 10SM CLR 05/04 A3023 RMK AO2 T00500044
cycle: 3

Station Type Date Time Source
KLGC TAF UTC NOAA

Error!

Example: see airport list